sensor_id;sensor_type;location;lat;lon;timestamp;temperature;humidity
12948;DHT22;6539;49.476;8.484;2023-02-11T00:01:12;3.50;99.90
12948;DHT22;6539;49.476;8.484;2023-02-11T00:03:44;3.80;99.90
12948;DHT22;6539;49.476;8.484;2023-02-11T00:06:12;3.80;99.90
12948;DHT22;6539;49.476;8.484;2023-02-11T00:08:38;3.80;99.90
12948;DHT22;6539;49.476;8.484;2023-02-11T00:11:06;3.90;99.90
12948;DHT22;6539;49.476;8.484;2023-02-11T00:13:34;3.60;99.90
12948;DHT22;6539;49.476;8.484;2023-02-11T00:16:08;3.80;99.90
12948;DHT22;6539;49.476;8.484;2023-02-11T00:18:36;3.60;99.90
12948;DHT22;6539;49.476;8.484;2023-02-11T00:21:07;3.70;99.90
12948;DHT22;6539;49.476;8.484;2023-02-11T00:23:36;3.90;99.90
12948;DHT22;6539;49.476;8.484;2023-02-11T00:26:14;3.80;99.90
12948;DHT22;6539;49.476;8.484;2023-02-11T00:28:50;3.60;99.90
12948;DHT22;6539;49.476;8.484;2023-02-11T00:31:21;3.60;99.90
12948;DHT22;6539;49.476;8.484;2023-02-11T00:36:20;4.00;99.90
12948;DHT22;6539;49.476;8.484;2023-02-11T00:38:53;3.80;99.90
12948;DHT22;6539;49.476;8.484;2023-02-11T00:41:22;4.10;99.90
12948;DHT22;6539;49.476;8.484;2023-02-11T00:43:53;3.80;99.90
12948;DHT22;6539;49.476;8.484;2023-02-11T00:46:19;3.90;99.90
12948;DHT22;6539;49.476;8.484;2023-02-11T00:48:45;4.10;99.90
12948;DHT22;6539;49.476;8.484;2023-02-11T00:51:11;3.90;99.90
12948;DHT22;6539;49.476;8.484;2023-02-11T00:53:39;4.00;99.90
12948;DHT22;6539;49.476;8.484;2023-02-11T00:56:08;3.90;99.90
12948;DHT22;6539;49.476;8.484;2023-02-11T00:58:34;3.80;99.90
12948;DHT22;6539;49.476;8.484;2023-02-11T01:01:01;3.90;99.90
12948;DHT22;6539;49.476;8.484;2023-02-11T01:03:28;4.00;99.90
12948;DHT22;6539;49.476;8.484;2023-02-11T01:05:53;3.90;99.90
12948;DHT22;6539;49.476;8.484;2023-02-11T01:08:22;3.90;99.90
12948;DHT22;6539;49.476;8.484;2023-02-11T01:10:58;3.80;99.90
12948;DHT22;6539;49.476;8.484;2023-02-11T01:13:35;3.80;99.90
12948;DHT22;6539;49.476;8.484;2023-02-11T01:16:06;4.00;99.90
12948;DHT22;6539;49.476;8.484;2023-02-11T01:18:33;3.90;99.90
12948;DHT22;6539;49.476;8.484;2023-02-11T01:20:59;3.70;99.90
12948;DHT22;6539;49.476;8.484;2023-02-11T01:23:24;3.90;99.90
12948;DHT22;6539;49.476;8.484;2023-02-11T01:25:51;3.90;99.90
12948;DHT22;6539;49.476;8.484;2023-02-11T01:28:19;3.90;99.90
12948;DHT22;6539;49.476;8.484;2023-02-11T01:30:49;4.00;99.90
12948;DHT22;6539;49.476;8.484;2023-02-11T01:33:18;3.80;99.90
12948;DHT22;6539;49.476;8.484;2023-02-11T01:35:44;4.10;99.90
12948;DHT22;6539;49.476;8.484;2023-02-11T01:38:18;4.10;99.90
12948;DHT22;6539;49.476;8.484;2023-02-11T01:41:10;4.10;99.90
12948;DHT22;6539;49.476;8.484;2023-02-11T01:43:40;3.70;99.90
12948;DHT22;6539;49.476;8.484;2023-02-11T01:46:47;3.80;99.90
12948;DHT22;6539;49.476;8.484;2023-02-11T01:49:18;4.10;99.90
12948;DHT22;6539;49.476;8.484;2023-02-11T01:54:40;3.90;99.90
12948;DHT22;6539;49.476;8.484;2023-02-11T01:57:34;3.80;99.90
12948;DHT22;6539;49.476;8.484;2023-02-11T02:00:13;3.80;99.90
12948;DHT22;6539;49.476;8.484;2023-02-11T02:06:15;4.10;99.90
12948;DHT22;6539;49.476;8.484;2023-02-11T02:08:54;3.70;99.90
12948;DHT22;6539;49.476;8.484;2023-02-11T02:11:25;3.80;99.90
12948;DHT22;6539;49.476;8.484;2023-02-11T02:16:20;3.80;99.90
12948;DHT22;6539;49.476;8.484;2023-02-11T02:27:55;4.20;99.90
12948;DHT22;6539;49.476;8.484;2023-02-11T02:34:01;3.70;99.90
12948;DHT22;6539;49.476;8.484;2023-02-11T02:36:46;3.90;99.90
12948;DHT22;6539;49.476;8.484;2023-02-11T02:39:28;3.80;99.90
12948;DHT22;6539;49.476;8.484;2023-02-11T02:42:01;3.90;99.90
12948;DHT22;6539;49.476;8.484;2023-02-11T02:44:28;3.50;99.90
12948;DHT22;6539;49.476;8.484;2023-02-11T02:46:58;3.90;99.90
12948;DHT22;6539;49.476;8.484;2023-02-11T02:49:24;3.80;99.90
12948;DHT22;6539;49.476;8.484;2023-02-11T03:00:31;3.80;99.90
12948;DHT22;6539;49.476;8.484;2023-02-11T03:06:16;3.80;99.90
12948;DHT22;6539;49.476;8.484;2023-02-11T03:09:07;3.70;99.90
12948;DHT22;6539;49.476;8.484;2023-02-11T03:14:12;3.70;99.90
12948;DHT22;6539;49.476;8.484;2023-02-11T03:16:45;3.60;99.90
12948;DHT22;6539;49.476;8.484;2023-02-11T03:19:29;4.00;99.90
12948;DHT22;6539;49.476;8.484;2023-02-11T03:22:04;3.70;99.90
12948;DHT22;6539;49.476;8.484;2023-02-11T03:24:37;3.70;99.90
12948;DHT22;6539;49.476;8.484;2023-02-11T03:27:32;3.60;99.90
12948;DHT22;6539;49.476;8.484;2023-02-11T03:30:48;3.60;99.90
12948;DHT22;6539;49.476;8.484;2023-02-11T03:33:26;3.60;99.90
12948;DHT22;6539;49.476;8.484;2023-02-11T03:36:10;3.60;99.90
12948;DHT22;6539;49.476;8.484;2023-02-11T03:38:45;3.70;99.90
12948;DHT22;6539;49.476;8.484;2023-02-11T03:41:16;3.70;99.90
12948;DHT22;6539;49.476;8.484;2023-02-11T03:43:52;3.80;99.90
12948;DHT22;6539;49.476;8.484;2023-02-11T03:46:26;3.50;99.90
12948;DHT22;6539;49.476;8.484;2023-02-11T03:49:02;3.50;99.90
12948;DHT22;6539;49.476;8.484;2023-02-11T03:51:32;3.90;99.90
12948;DHT22;6539;49.476;8.484;2023-02-11T03:54:01;3.70;99.90
12948;DHT22;6539;49.476;8.484;2023-02-11T03:56:34;3.90;99.90
12948;DHT22;6539;49.476;8.484;2023-02-11T03:59:13;3.60;99.90
12948;DHT22;6539;49.476;8.484;2023-02-11T04:01:41;3.70;99.90
12948;DHT22;6539;49.476;8.484;2023-02-11T04:04:15;3.60;99.90
12948;DHT22;6539;49.476;8.484;2023-02-11T04:06:40;3.50;99.90
12948;DHT22;6539;49.476;8.484;2023-02-11T04:09:10;3.70;99.90
12948;DHT22;6539;49.476;8.484;2023-02-11T04:11:41;3.60;99.90
12948;DHT22;6539;49.476;8.484;2023-02-11T04:14:07;3.80;99.90
12948;DHT22;6539;49.476;8.484;2023-02-11T04:16:33;3.90;99.90
12948;DHT22;6539;49.476;8.484;2023-02-11T04:19:03;3.70;99.90
12948;DHT22;6539;49.476;8.484;2023-02-11T04:21:29;3.90;99.90
12948;DHT22;6539;49.476;8.484;2023-02-11T04:23:55;3.90;99.90
12948;DHT22;6539;49.476;8.484;2023-02-11T04:26:20;3.80;99.90
12948;DHT22;6539;49.476;8.484;2023-02-11T04:28:46;3.90;99.90
12948;DHT22;6539;49.476;8.484;2023-02-11T04:31:14;3.90;99.90
12948;DHT22;6539;49.476;8.484;2023-02-11T04:33:40;3.50;99.90
12948;DHT22;6539;49.476;8.484;2023-02-11T04:36:06;3.70;99.90
12948;DHT22;6539;49.476;8.484;2023-02-11T04:38:34;3.80;99.90
12948;DHT22;6539;49.476;8.484;2023-02-11T04:41:02;4.10;99.90
12948;DHT22;6539;49.476;8.484;2023-02-11T04:43:28;3.90;99.90
12948;DHT22;6539;49.476;8.484;2023-02-11T04:45:57;3.90;99.90
12948;DHT22;6539;49.476;8.484;2023-02-11T04:48:23;3.80;99.90
12948;DHT22;6539;49.476;8.484;2023-02-11T04:50:54;3.70;99.90
12948;DHT22;6539;49.476;8.484;2023-02-11T04:53:20;3.70;99.90
12948;DHT22;6539;49.476;8.484;2023-02-11T04:55:49;3.70;99.90
12948;DHT22;6539;49.476;8.484;2023-02-11T04:58:21;3.70;99.90
12948;DHT22;6539;49.476;8.484;2023-02-11T05:00:46;3.90;99.90
12948;DHT22;6539;49.476;8.484;2023-02-11T05:03:12;3.90;99.90
12948;DHT22;6539;49.476;8.484;2023-02-11T05:05:39;4.20;99.90
12948;DHT22;6539;49.476;8.484;2023-02-11T05:08:07;3.80;99.90
12948;DHT22;6539;49.476;8.484;2023-02-11T05:10:36;3.70;99.90
12948;DHT22;6539;49.476;8.484;2023-02-11T05:13:03;4.00;99.90
12948;DHT22;6539;49.476;8.484;2023-02-11T05:15:32;4.00;99.90
12948;DHT22;6539;49.476;8.484;2023-02-11T05:18:02;3.90;99.90
12948;DHT22;6539;49.476;8.484;2023-02-11T05:20:28;3.80;99.90
12948;DHT22;6539;49.476;8.484;2023-02-11T05:22:54;3.60;99.90
12948;DHT22;6539;49.476;8.484;2023-02-11T05:25:20;3.60;99.90
12948;DHT22;6539;49.476;8.484;2023-02-11T05:27:48;3.80;99.90
12948;DHT22;6539;49.476;8.484;2023-02-11T05:30:18;3.80;99.90
12948;DHT22;6539;49.476;8.484;2023-02-11T05:32:46;3.60;99.90
12948;DHT22;6539;49.476;8.484;2023-02-11T05:35:14;2.60;99.90
12948;DHT22;6539;49.476;8.484;2023-02-11T05:37:40;3.50;99.90
12948;DHT22;6539;49.476;8.484;2023-02-11T05:40:06;3.50;99.90
12948;DHT22;6539;49.476;8.484;2023-02-11T05:42:37;3.50;99.90
12948;DHT22;6539;49.476;8.484;2023-02-11T05:45:03;3.40;99.90
12948;DHT22;6539;49.476;8.484;2023-02-11T05:47:29;3.50;99.90
12948;DHT22;6539;49.476;8.484;2023-02-11T05:49:55;3.70;99.90
12948;DHT22;6539;49.476;8.484;2023-02-11T05:52:21;3.40;99.90
12948;DHT22;6539;49.476;8.484;2023-02-11T05:54:50;3.10;99.90
12948;DHT22;6539;49.476;8.484;2023-02-11T05:57:15;3.40;99.90
12948;DHT22;6539;49.476;8.484;2023-02-11T06:02:11;3.50;99.90
12948;DHT22;6539;49.476;8.484;2023-02-11T06:04:37;3.80;99.90
12948;DHT22;6539;49.476;8.484;2023-02-11T06:07:10;3.50;99.90
12948;DHT22;6539;49.476;8.484;2023-02-11T06:09:36;3.60;99.90
12948;DHT22;6539;49.476;8.484;2023-02-11T06:12:07;3.50;99.90
12948;DHT22;6539;49.476;8.484;2023-02-11T06:14:33;3.50;99.90
12948;DHT22;6539;49.476;8.484;2023-02-11T06:17:01;3.60;99.90
12948;DHT22;6539;49.476;8.484;2023-02-11T06:19:27;3.40;99.90
12948;DHT22;6539;49.476;8.484;2023-02-11T06:21:55;3.20;99.90
12948;DHT22;6539;49.476;8.484;2023-02-11T06:26:47;3.30;99.90
12948;DHT22;6539;49.476;8.484;2023-02-11T06:29:13;3.30;99.90
12948;DHT22;6539;49.476;8.484;2023-02-11T06:31:39;3.30;99.90
12948;DHT22;6539;49.476;8.484;2023-02-11T06:34:06;3.50;99.90
12948;DHT22;6539;49.476;8.484;2023-02-11T06:36:37;3.40;99.90
12948;DHT22;6539;49.476;8.484;2023-02-11T06:39:04;3.40;99.90
12948;DHT22;6539;49.476;8.484;2023-02-11T06:41:29;3.70;99.90
12948;DHT22;6539;49.476;8.484;2023-02-11T06:43:58;3.80;99.90
12948;DHT22;6539;49.476;8.484;2023-02-11T06:46:24;3.70;99.90
12948;DHT22;6539;49.476;8.484;2023-02-11T06:48:52;3.60;99.90
12948;DHT22;6539;49.476;8.484;2023-02-11T06:53:47;3.60;99.90
12948;DHT22;6539;49.476;8.484;2023-02-11T06:56:20;3.40;99.90
12948;DHT22;6539;49.476;8.484;2023-02-11T06:58:47;3.60;99.90
12948;DHT22;6539;49.476;8.484;2023-02-11T07:01:18;3.80;99.90
12948;DHT22;6539;49.476;8.484;2023-02-11T07:03:49;3.50;99.90
12948;DHT22;6539;49.476;8.484;2023-02-11T07:06:20;3.70;99.90
12948;DHT22;6539;49.476;8.484;2023-02-11T07:08:48;3.50;99.90
12948;DHT22;6539;49.476;8.484;2023-02-11T07:11:19;3.70;99.90
12948;DHT22;6539;49.476;8.484;2023-02-11T07:16:16;3.80;99.90
12948;DHT22;6539;49.476;8.484;2023-02-11T07:18:47;3.80;99.90
12948;DHT22;6539;49.476;8.484;2023-02-11T07:21:15;3.80;99.90
12948;DHT22;6539;49.476;8.484;2023-02-11T07:23:46;3.40;99.90
12948;DHT22;6539;49.476;8.484;2023-02-11T07:26:20;3.50;99.90
12948;DHT22;6539;49.476;8.484;2023-02-11T07:28:48;3.50;99.90
12948;DHT22;6539;49.476;8.484;2023-02-11T07:31:24;3.50;99.90
12948;DHT22;6539;49.476;8.484;2023-02-11T07:33:55;3.80;99.90
12948;DHT22;6539;49.476;8.484;2023-02-11T07:36:24;3.80;99.90
12948;DHT22;6539;49.476;8.484;2023-02-11T07:38:56;3.80;99.90
12948;DHT22;6539;49.476;8.484;2023-02-11T07:41:23;4.00;99.90
12948;DHT22;6539;49.476;8.484;2023-02-11T07:46:23;3.80;99.90
12948;DHT22;6539;49.476;8.484;2023-02-11T07:48:50;3.80;99.90
12948;DHT22;6539;49.476;8.484;2023-02-11T07:51:24;4.10;99.90
12948;DHT22;6539;49.476;8.484;2023-02-11T07:53:52;3.90;99.90
12948;DHT22;6539;49.476;8.484;2023-02-11T07:56:24;3.90;99.90
12948;DHT22;6539;49.476;8.484;2023-02-11T07:58:50;4.00;99.90
12948;DHT22;6539;49.476;8.484;2023-02-11T08:01:22;4.10;99.90
12948;DHT22;6539;49.476;8.484;2023-02-11T08:03:57;3.80;99.90
12948;DHT22;6539;49.476;8.484;2023-02-11T08:06:29;4.10;99.90
12948;DHT22;6539;49.476;8.484;2023-02-11T08:09:06;4.30;99.90
12948;DHT22;6539;49.476;8.484;2023-02-11T08:11:38;4.40;99.90
12948;DHT22;6539;49.476;8.484;2023-02-11T08:14:05;4.30;99.90
12948;DHT22;6539;49.476;8.484;2023-02-11T08:16:34;4.60;99.90
12948;DHT22;6539;49.476;8.484;2023-02-11T08:19:05;4.70;99.90
12948;DHT22;6539;49.476;8.484;2023-02-11T08:21:39;4.70;99.90
12948;DHT22;6539;49.476;8.484;2023-02-11T08:24:08;4.60;99.90
12948;DHT22;6539;49.476;8.484;2023-02-11T08:26:34;4.50;99.90
12948;DHT22;6539;49.476;8.484;2023-02-11T08:29:07;4.70;99.90
12948;DHT22;6539;49.476;8.484;2023-02-11T08:31:42;4.90;99.90
12948;DHT22;6539;49.476;8.484;2023-02-11T08:34:13;4.70;99.90
12948;DHT22;6539;49.476;8.484;2023-02-11T08:36:45;5.10;99.90
12948;DHT22;6539;49.476;8.484;2023-02-11T08:39:19;5.40;99.90
12948;DHT22;6539;49.476;8.484;2023-02-11T08:41:53;5.60;99.90
12948;DHT22;6539;49.476;8.484;2023-02-11T08:44:21;6.00;99.90
12948;DHT22;6539;49.476;8.484;2023-02-11T08:46:52;6.80;99.90
12948;DHT22;6539;49.476;8.484;2023-02-11T08:49:20;6.70;99.90
12948;DHT22;6539;49.476;8.484;2023-02-11T08:51:47;7.30;99.90
12948;DHT22;6539;49.476;8.484;2023-02-11T08:54:14;7.60;99.90
12948;DHT22;6539;49.476;8.484;2023-02-11T08:56:43;7.50;99.90
12948;DHT22;6539;49.476;8.484;2023-02-11T08:59:13;7.80;99.90
12948;DHT22;6539;49.476;8.484;2023-02-11T09:01:39;8.30;99.90
12948;DHT22;6539;49.476;8.484;2023-02-11T09:04:05;9.00;99.90
12948;DHT22;6539;49.476;8.484;2023-02-11T09:06:33;9.00;99.90
12948;DHT22;6539;49.476;8.484;2023-02-11T09:08:59;8.90;99.90
12948;DHT22;6539;49.476;8.484;2023-02-11T09:11:30;8.60;99.90
12948;DHT22;6539;49.476;8.484;2023-02-11T09:13:57;9.20;99.90
12948;DHT22;6539;49.476;8.484;2023-02-11T09:16:26;8.80;99.90
12948;DHT22;6539;49.476;8.484;2023-02-11T09:18:56;8.80;99.90
12948;DHT22;6539;49.476;8.484;2023-02-11T09:21:23;9.00;99.90
12948;DHT22;6539;49.476;8.484;2023-02-11T09:23:50;8.70;99.90
12948;DHT22;6539;49.476;8.484;2023-02-11T09:26:17;8.70;99.90
12948;DHT22;6539;49.476;8.484;2023-02-11T09:28:50;8.70;99.90
12948;DHT22;6539;49.476;8.484;2023-02-11T09:31:21;9.00;99.90
12948;DHT22;6539;49.476;8.484;2023-02-11T09:33:54;9.70;99.90
12948;DHT22;6539;49.476;8.484;2023-02-11T09:36:28;9.60;99.90
12948;DHT22;6539;49.476;8.484;2023-02-11T09:39:00;9.70;99.90
12948;DHT22;6539;49.476;8.484;2023-02-11T09:44:05;10.20;99.90
12948;DHT22;6539;49.476;8.484;2023-02-11T09:46:40;10.30;99.90
12948;DHT22;6539;49.476;8.484;2023-02-11T09:49:22;10.10;99.90
12948;DHT22;6539;49.476;8.484;2023-02-11T09:52:51;10.50;99.90
12948;DHT22;6539;49.476;8.484;2023-02-11T09:54:59;10.80;99.90
12948;DHT22;6539;49.476;8.484;2023-02-11T09:57:35;10.70;99.90
12948;DHT22;6539;49.476;8.484;2023-02-11T10:00:26;10.80;99.90
12948;DHT22;6539;49.476;8.484;2023-02-11T10:06:15;11.30;99.90
12948;DHT22;6539;49.476;8.484;2023-02-11T10:17:55;9.90;99.90
12948;DHT22;6539;49.476;8.484;2023-02-11T10:23:20;9.40;99.90
12948;DHT22;6539;49.476;8.484;2023-02-11T10:25:54;9.30;99.90
12948;DHT22;6539;49.476;8.484;2023-02-11T10:28:30;9.10;99.90
12948;DHT22;6539;49.476;8.484;2023-02-11T10:31:22;9.60;99.90
12948;DHT22;6539;49.476;8.484;2023-02-11T10:33:58;9.20;99.90
12948;DHT22;6539;49.476;8.484;2023-02-11T10:36:35;9.70;99.90
12948;DHT22;6539;49.476;8.484;2023-02-11T10:41:50;9.60;99.90
12948;DHT22;6539;49.476;8.484;2023-02-11T10:44:31;9.70;99.90
12948;DHT22;6539;49.476;8.484;2023-02-11T10:47:30;10.10;99.90
12948;DHT22;6539;49.476;8.484;2023-02-11T10:49:57;9.70;99.90
12948;DHT22;6539;49.476;8.484;2023-02-11T10:52:28;9.50;99.90
12948;DHT22;6539;49.476;8.484;2023-02-11T10:57:37;9.40;99.90
12948;DHT22;6539;49.476;8.484;2023-02-11T11:02:59;9.80;99.90
12948;DHT22;6539;49.476;8.484;2023-02-11T11:05:44;9.80;99.90
12948;DHT22;6539;49.476;8.484;2023-02-11T11:08:13;9.90;99.90
12948;DHT22;6539;49.476;8.484;2023-02-11T11:10:41;10.00;99.90
12948;DHT22;6539;49.476;8.484;2023-02-11T11:13:30;10.50;99.90
12948;DHT22;6539;49.476;8.484;2023-02-11T11:18:52;11.30;99.90
12948;DHT22;6539;49.476;8.484;2023-02-11T11:24:20;11.80;99.90
12948;DHT22;6539;49.476;8.484;2023-02-11T11:26:49;11.90;99.90
12948;DHT22;6539;49.476;8.484;2023-02-11T11:29:42;12.10;99.90
12948;DHT22;6539;49.476;8.484;2023-02-11T11:32:30;12.20;99.90
12948;DHT22;6539;49.476;8.484;2023-02-11T11:35:03;12.00;99.90
12948;DHT22;6539;49.476;8.484;2023-02-11T11:37:35;12.30;99.90
12948;DHT22;6539;49.476;8.484;2023-02-11T11:40:16;12.20;99.90
12948;DHT22;6539;49.476;8.484;2023-02-11T11:43:21;12.30;99.90
12948;DHT22;6539;49.476;8.484;2023-02-11T11:45:57;12.50;99.90
12948;DHT22;6539;49.476;8.484;2023-02-11T11:48:33;12.60;99.90
12948;DHT22;6539;49.476;8.484;2023-02-11T11:51:06;12.60;99.90
12948;DHT22;6539;49.476;8.484;2023-02-11T11:53:52;12.60;99.90
12948;DHT22;6539;49.476;8.484;2023-02-11T11:56:31;12.70;99.90
12948;DHT22;6539;49.476;8.484;2023-02-11T11:59:01;12.50;99.90
12948;DHT22;6539;49.476;8.484;2023-02-11T12:10:53;12.40;99.90
12948;DHT22;6539;49.476;8.484;2023-02-11T12:16:35;12.60;99.90
12948;DHT22;6539;49.476;8.484;2023-02-11T12:25:11;12.00;99.90
12948;DHT22;6539;49.476;8.484;2023-02-11T12:30:56;11.50;99.90
12948;DHT22;6539;49.476;8.484;2023-02-11T12:42:50;11.60;99.90
12948;DHT22;6539;49.476;8.484;2023-02-11T12:51:25;11.60;99.90
12948;DHT22;6539;49.476;8.484;2023-02-11T13:02:53;10.90;99.90
12948;DHT22;6539;49.476;8.484;2023-02-11T13:05:44;11.20;99.90
12948;DHT22;6539;49.476;8.484;2023-02-11T13:08:14;11.10;99.90
12948;DHT22;6539;49.476;8.484;2023-02-11T13:10:51;11.10;99.90
12948;DHT22;6539;49.476;8.484;2023-02-11T13:13:30;11.00;99.90
12948;DHT22;6539;49.476;8.484;2023-02-11T13:16:03;11.10;99.90
12948;DHT22;6539;49.476;8.484;2023-02-11T13:27:40;11.00;99.90
12948;DHT22;6539;49.476;8.484;2023-02-11T13:30:34;11.00;99.90
12948;DHT22;6539;49.476;8.484;2023-02-11T13:33:31;10.90;99.90
12948;DHT22;6539;49.476;8.484;2023-02-11T13:38:27;10.80;99.90
12948;DHT22;6539;49.476;8.484;2023-02-11T13:44:01;10.80;99.90
12948;DHT22;6539;49.476;8.484;2023-02-11T13:49:37;10.60;99.90
12948;DHT22;6539;49.476;8.484;2023-02-11T13:52:32;10.60;99.90
12948;DHT22;6539;49.476;8.484;2023-02-11T13:55:19;10.60;99.90
12948;DHT22;6539;49.476;8.484;2023-02-11T14:06:18;10.00;99.90
12948;DHT22;6539;49.476;8.484;2023-02-11T14:09:38;10.30;99.90
12948;DHT22;6539;49.476;8.484;2023-02-11T14:12:25;10.30;99.90
12948;DHT22;6539;49.476;8.484;2023-02-11T14:15:17;10.30;99.90
12948;DHT22;6539;49.476;8.484;2023-02-11T14:17:45;10.40;99.90
12948;DHT22;6539;49.476;8.484;2023-02-11T14:20:33;10.40;99.90
12948;DHT22;6539;49.476;8.484;2023-02-11T14:23:02;10.40;99.90
12948;DHT22;6539;49.476;8.484;2023-02-11T14:25:31;10.30;99.90
12948;DHT22;6539;49.476;8.484;2023-02-11T14:28:11;10.30;99.90
12948;DHT22;6539;49.476;8.484;2023-02-11T14:31:07;10.20;99.90
12948;DHT22;6539;49.476;8.484;2023-02-11T14:42:25;9.90;99.90
12948;DHT22;6539;49.476;8.484;2023-02-11T14:45:07;9.90;99.90
12948;DHT22;6539;49.476;8.484;2023-02-11T14:50:48;10.20;99.90
12948;DHT22;6539;49.476;8.484;2023-02-11T14:53:37;10.20;99.90
12948;DHT22;6539;49.476;8.484;2023-02-11T14:56:21;10.10;99.90
12948;DHT22;6539;49.476;8.484;2023-02-11T14:58:54;10.30;99.90
12948;DHT22;6539;49.476;8.484;2023-02-11T15:03:58;10.00;99.90
12948;DHT22;6539;49.476;8.484;2023-02-11T15:06:37;9.90;99.90
12948;DHT22;6539;49.476;8.484;2023-02-11T15:09:21;10.00;99.90
12948;DHT22;6539;49.476;8.484;2023-02-11T15:11:55;10.00;99.90
12948;DHT22;6539;49.476;8.484;2023-02-11T15:14:24;9.90;99.90
12948;DHT22;6539;49.476;8.484;2023-02-11T15:16:54;9.90;99.90
12948;DHT22;6539;49.476;8.484;2023-02-11T15:19:37;10.10;99.90
12948;DHT22;6539;49.476;8.484;2023-02-11T15:22:18;9.80;99.90
12948;DHT22;6539;49.476;8.484;2023-02-11T15:32:50;10.10;99.90
12948;DHT22;6539;49.476;8.484;2023-02-11T15:35:52;9.90;99.90
12948;DHT22;6539;49.476;8.484;2023-02-11T15:38:20;9.80;99.90
12948;DHT22;6539;49.476;8.484;2023-02-11T15:40:58;9.80;99.90
12948;DHT22;6539;49.476;8.484;2023-02-11T15:43:48;9.80;99.90
12948;DHT22;6539;49.476;8.484;2023-02-11T15:46:19;9.60;99.90
12948;DHT22;6539;49.476;8.484;2023-02-11T15:48:52;9.80;99.90
12948;DHT22;6539;49.476;8.484;2023-02-11T15:51:28;9.90;99.90
12948;DHT22;6539;49.476;8.484;2023-02-11T15:54:06;9.80;99.90
12948;DHT22;6539;49.476;8.484;2023-02-11T15:56:47;9.80;99.90
12948;DHT22;6539;49.476;8.484;2023-02-11T15:59:35;9.80;99.90
12948;DHT22;6539;49.476;8.484;2023-02-11T16:02:26;9.80;99.90
12948;DHT22;6539;49.476;8.484;2023-02-11T16:04:56;9.80;99.90
12948;DHT22;6539;49.476;8.484;2023-02-11T16:07:46;9.50;99.90
12948;DHT22;6539;49.476;8.484;2023-02-11T16:10:28;9.70;99.90
12948;DHT22;6539;49.476;8.484;2023-02-11T16:13:17;10.00;99.90
12948;DHT22;6539;49.476;8.484;2023-02-11T16:15:49;9.60;99.90
12948;DHT22;6539;49.476;8.484;2023-02-11T16:18:35;9.70;99.90
12948;DHT22;6539;49.476;8.484;2023-02-11T16:21:03;9.70;99.90
12948;DHT22;6539;49.476;8.484;2023-02-11T16:23:34;9.90;99.90
12948;DHT22;6539;49.476;8.484;2023-02-11T16:26:30;9.60;99.90
12948;DHT22;6539;49.476;8.484;2023-02-11T16:29:09;9.70;99.90
12948;DHT22;6539;49.476;8.484;2023-02-11T16:31:41;9.70;99.90
12948;DHT22;6539;49.476;8.484;2023-02-11T16:34:23;9.70;99.90
12948;DHT22;6539;49.476;8.484;2023-02-11T16:36:52;9.60;99.90
12948;DHT22;6539;49.476;8.484;2023-02-11T16:39:22;9.60;99.90
12948;DHT22;6539;49.476;8.484;2023-02-11T16:41:49;9.70;99.90
12948;DHT22;6539;49.476;8.484;2023-02-11T16:44:16;9.90;99.90
12948;DHT22;6539;49.476;8.484;2023-02-11T16:46:42;9.60;99.90
12948;DHT22;6539;49.476;8.484;2023-02-11T16:52:05;9.60;99.90
12948;DHT22;6539;49.476;8.484;2023-02-11T16:54:33;9.40;99.90
12948;DHT22;6539;49.476;8.484;2023-02-11T16:57:15;9.70;99.90
12948;DHT22;6539;49.476;8.484;2023-02-11T16:59:42;9.70;99.90
12948;DHT22;6539;49.476;8.484;2023-02-11T17:02:21;9.60;99.90
12948;DHT22;6539;49.476;8.484;2023-02-11T17:04:52;9.50;99.90
12948;DHT22;6539;49.476;8.484;2023-02-11T17:07:21;9.40;99.90
12948;DHT22;6539;49.476;8.484;2023-02-11T17:09:52;9.50;99.90
12948;DHT22;6539;49.476;8.484;2023-02-11T17:12:20;9.60;99.90
12948;DHT22;6539;49.476;8.484;2023-02-11T17:14:46;9.60;99.90
12948;DHT22;6539;49.476;8.484;2023-02-11T17:17:12;9.50;99.90
12948;DHT22;6539;49.476;8.484;2023-02-11T17:19:38;9.50;99.90
12948;DHT22;6539;49.476;8.484;2023-02-11T17:22:11;9.50;99.90
12948;DHT22;6539;49.476;8.484;2023-02-11T17:24:37;9.50;99.90
12948;DHT22;6539;49.476;8.484;2023-02-11T17:27:04;9.40;99.90
12948;DHT22;6539;49.476;8.484;2023-02-11T17:29:30;9.40;99.90
12948;DHT22;6539;49.476;8.484;2023-02-11T17:31:56;9.60;99.90
12948;DHT22;6539;49.476;8.484;2023-02-11T17:34:22;9.60;99.90
12948;DHT22;6539;49.476;8.484;2023-02-11T17:36:48;9.40;99.90
12948;DHT22;6539;49.476;8.484;2023-02-11T17:39:17;9.50;99.90
12948;DHT22;6539;49.476;8.484;2023-02-11T17:41:47;9.40;99.90
12948;DHT22;6539;49.476;8.484;2023-02-11T17:44:13;9.50;99.90
12948;DHT22;6539;49.476;8.484;2023-02-11T17:46:42;9.40;99.90
12948;DHT22;6539;49.476;8.484;2023-02-11T17:49:11;9.70;99.90
12948;DHT22;6539;49.476;8.484;2023-02-11T17:51:38;9.50;99.90
12948;DHT22;6539;49.476;8.484;2023-02-11T17:54:07;9.50;99.90
12948;DHT22;6539;49.476;8.484;2023-02-11T17:56:35;9.50;99.90
12948;DHT22;6539;49.476;8.484;2023-02-11T17:59:03;9.60;99.90
12948;DHT22;6539;49.476;8.484;2023-02-11T18:01:33;9.20;99.90
12948;DHT22;6539;49.476;8.484;2023-02-11T18:03:59;9.40;99.90
12948;DHT22;6539;49.476;8.484;2023-02-11T18:06:25;9.50;99.90
12948;DHT22;6539;49.476;8.484;2023-02-11T18:08:54;9.50;99.90
12948;DHT22;6539;49.476;8.484;2023-02-11T18:11:24;9.30;99.90
12948;DHT22;6539;49.476;8.484;2023-02-11T18:13:55;9.70;99.90
12948;DHT22;6539;49.476;8.484;2023-02-11T18:16:23;9.30;99.90
12948;DHT22;6539;49.476;8.484;2023-02-11T18:18:57;9.40;99.90
12948;DHT22;6539;49.476;8.484;2023-02-11T18:21:26;9.40;99.90
12948;DHT22;6539;49.476;8.484;2023-02-11T18:23:52;9.30;99.90
12948;DHT22;6539;49.476;8.484;2023-02-11T18:26:20;9.20;99.90
12948;DHT22;6539;49.476;8.484;2023-02-11T18:28:50;9.40;99.90
12948;DHT22;6539;49.476;8.484;2023-02-11T18:31:17;9.60;99.90
12948;DHT22;6539;49.476;8.484;2023-02-11T18:33:47;9.90;99.90
12948;DHT22;6539;49.476;8.484;2023-02-11T18:36:18;9.60;99.90
12948;DHT22;6539;49.476;8.484;2023-02-11T18:38:45;9.80;99.90
12948;DHT22;6539;49.476;8.484;2023-02-11T18:41:12;9.60;99.90
12948;DHT22;6539;49.476;8.484;2023-02-11T18:43:41;9.40;99.90
12948;DHT22;6539;49.476;8.484;2023-02-11T18:46:11;9.50;99.90
12948;DHT22;6539;49.476;8.484;2023-02-11T18:48:40;9.50;99.90
12948;DHT22;6539;49.476;8.484;2023-02-11T18:51:15;9.50;99.90
12948;DHT22;6539;49.476;8.484;2023-02-11T18:53:43;9.80;99.90
12948;DHT22;6539;49.476;8.484;2023-02-11T18:56:18;9.60;99.90
12948;DHT22;6539;49.476;8.484;2023-02-11T18:58:47;9.70;99.90
12948;DHT22;6539;49.476;8.484;2023-02-11T19:01:18;9.40;99.90
12948;DHT22;6539;49.476;8.484;2023-02-11T19:03:48;9.50;99.90
12948;DHT22;6539;49.476;8.484;2023-02-11T19:06:19;9.40;99.90
12948;DHT22;6539;49.476;8.484;2023-02-11T19:08:53;9.50;99.90
12948;DHT22;6539;49.476;8.484;2023-02-11T19:11:20;9.60;99.90
12948;DHT22;6539;49.476;8.484;2023-02-11T19:14:09;9.70;99.90
12948;DHT22;6539;49.476;8.484;2023-02-11T19:16:37;9.60;99.90
12948;DHT22;6539;49.476;8.484;2023-02-11T19:19:07;9.00;99.90
12948;DHT22;6539;49.476;8.484;2023-02-11T19:21:35;9.40;99.90
12948;DHT22;6539;49.476;8.484;2023-02-11T19:24:04;9.50;99.90
12948;DHT22;6539;49.476;8.484;2023-02-11T19:26:32;9.70;99.90
12948;DHT22;6539;49.476;8.484;2023-02-11T19:29:01;9.50;99.90
12948;DHT22;6539;49.476;8.484;2023-02-11T19:31:33;9.80;99.90
12948;DHT22;6539;49.476;8.484;2023-02-11T19:34:00;9.60;99.90